createdAt,value
2022-08-22T03:49:25.000Z,50.60
2022-08-22T03:51:40.430Z,50.11
2022-08-22T03:54:08.376Z,49.86
2022-08-22T03:56:48.358Z,49.50
2022-08-22T03:59:19.536Z,49.23
2022-08-22T04:01:52.117Z,48.93
2022-08-22T04:04:18.907Z,49.08
2022-08-22T04:06:45.475Z,48.65
2022-08-22T04:09:20.989Z,48.94
2022-08-22T04:11:53.463Z,48.73
2022-08-22T04:14:40.532Z,48.52
2022-08-22T04:16:59.979Z,48.59
2022-08-22T04:19:47.852Z,48.51
2022-08-22T04:22:22.233Z,48.58
2022-08-22T04:24:52.453Z,48.10
2022-08-22T04:27:00.866Z,48.03
2022-08-22T04:29:10.048Z,47.97
2022-08-22T04:31:14.199Z,48.12
2022-08-22T04:33:25.358Z,48.13
2022-08-22T04:35:34.152Z,48.05
2022-08-22T04:37:46.380Z,47.63
2022-08-22T04:39:54.415Z,47.45
2022-08-22T04:42:16.362Z,48.02
2022-08-22T04:44:29.239Z,47.61
2022-08-22T04:46:39.379Z,47.75
2022-08-22T04:48:49.338Z,47.53
2022-08-22T04:50:59.020Z,47.80
2022-08-22T04:53:18.696Z,47.73
2022-08-22T04:55:33.996Z,47.33
2022-08-22T04:57:46.904Z,47.67
2022-08-22T04:59:51.179Z,47.62
2022-08-22T05:01:57.081Z,47.32
2022-08-22T05:04:03.827Z,47.29
2022-08-22T05:06:09.289Z,47.66
2022-08-22T05:08:19.587Z,47.05
2022-08-22T05:10:27.024Z,47.32
2022-08-22T05:12:33.759Z,46.96
2022-08-22T05:14:44.293Z,47.27
2022-08-22T05:16:51.844Z,46.82
2022-08-22T05:19:03.109Z,47.12
2022-08-22T05:21:08.948Z,47.07
2022-08-22T05:23:21.323Z,46.74
2022-08-22T05:25:28.286Z,46.85
2022-08-22T05:27:35.883Z,46.88
2022-08-22T05:29:43.450Z,46.71
2022-08-22T05:31:53.021Z,46.75
2022-08-22T05:34:02.830Z,47.17
2022-08-22T05:36:09.205Z,46.81
2022-08-22T05:38:24.139Z,46.95
2022-08-22T05:40:30.194Z,46.83
2022-08-22T05:42:36.719Z,46.75
2022-08-22T05:44:40.282Z,47.02
2022-08-22T05:46:45.677Z,47.07
2022-08-22T05:48:56.367Z,47.35
2022-08-22T05:51:10.212Z,47.18
2022-08-22T05:53:18.525Z,46.94
2022-08-22T05:55:29.158Z,47.30
2022-08-22T05:57:37.018Z,47.20
2022-08-22T05:59:43.351Z,47.38
2022-08-22T06:01:57.777Z,47.69
2022-08-22T06:04:07.907Z,47.99
2022-08-22T06:06:16.205Z,48.15
2022-08-22T06:08:25.008Z,48.06
2022-08-22T06:10:35.983Z,47.91
2022-08-22T06:12:43.356Z,48.11
2022-08-22T06:14:54.241Z,47.84
2022-08-22T06:17:03.903Z,48.11
2022-08-22T06:19:18.988Z,48.09
2022-08-22T06:21:35.415Z,47.93
2022-08-22T06:23:46.711Z,48.17
2022-08-22T06:25:53.250Z,47.98
2022-08-22T06:27:59.382Z,48.41
2022-08-22T06:30:04.219Z,48.31
2022-08-22T06:32:14.593Z,48.19
2022-08-22T06:34:24.366Z,48.04
2022-08-22T06:36:34.123Z,48.65
2022-08-22T06:38:55.071Z,48.35
2022-08-22T06:41:01.863Z,48.28
2022-08-22T06:43:06.964Z,48.79
2022-08-22T06:45:13.561Z,48.54
2022-08-22T06:47:27.479Z,48.63
2022-08-22T06:49:35.476Z,48.73
2022-08-22T06:51:40.099Z,48.81
2022-08-22T06:53:48.470Z,48.84
2022-08-22T06:55:55.718Z,48.57
2022-08-22T06:58:04.565Z,48.37
2022-08-22T07:00:13.148Z,48.39
2022-08-22T07:02:23.790Z,48.70
2022-08-22T07:04:28.759Z,48.43
2022-08-22T07:06:36.311Z,48.44
2022-08-22T07:08:40.450Z,48.49
2022-08-22T07:10:45.346Z,48.31
2022-08-22T07:12:51.493Z,48.33
2022-08-22T07:15:01.189Z,48.51
2022-08-22T07:17:08.323Z,48.27
2022-08-22T07:19:23.439Z,48.83
2022-08-22T07:21:29.694Z,48.35
2022-08-22T07:23:36.935Z,48.22
2022-08-22T07:25:52.883Z,48.61
2022-08-22T07:28:07.624Z,48.73
2022-08-22T07:30:15.009Z,48.27
2022-08-22T07:32:22.282Z,48.66
2022-08-22T07:37:01.700Z,48.23
2022-08-22T07:39:21.610Z,48.44
2022-08-22T07:41:31.322Z,48.42
2022-08-22T07:43:40.398Z,48.12
2022-08-22T07:45:55.361Z,48.16
2022-08-22T07:48:09.600Z,48.21
2022-08-22T07:50:19.744Z,48.04
2022-08-22T07:52:24.578Z,48.15
2022-08-22T07:54:38.245Z,47.87
2022-08-22T07:56:46.420Z,48.30
2022-08-22T07:58:54.494Z,47.88
2022-08-22T08:00:59.695Z,47.73
2022-08-22T08:03:08.087Z,47.80
2022-08-22T08:05:14.382Z,47.86
2022-08-22T08:07:20.745Z,47.78
2022-08-22T08:09:25.729Z,47.38
2022-08-22T08:11:34.043Z,47.63
2022-08-22T08:13:41.577Z,47.67
2022-08-22T08:15:46.466Z,47.38
2022-08-22T08:17:57.705Z,47.54
2022-08-22T08:20:03.977Z,47.11
2022-08-22T08:22:07.670Z,47.41
2022-08-22T08:24:15.449Z,47.32
2022-08-22T08:26:22.693Z,47.15
2022-08-22T08:28:34.300Z,46.90
2022-08-22T08:30:41.226Z,47.11
2022-08-22T08:32:49.021Z,47.02
2022-08-22T08:34:53.798Z,47.44
2022-08-22T08:37:02.111Z,47.21
2022-08-22T08:39:20.042Z,46.94
2022-08-22T08:41:49.440Z,46.90
2022-08-22T08:44:03.314Z,47.20
2022-08-22T08:46:29.036Z,47.16
2022-08-22T08:48:56.733Z,46.75
2022-08-22T08:51:15.477Z,46.93
2022-08-22T08:53:34.058Z,47.42
2022-08-22T08:55:51.180Z,47.34
2022-08-22T08:58:10.390Z,47.09
2022-08-22T09:00:16.717Z,47.25
2022-08-22T09:02:55.367Z,47.29
2022-08-22T09:05:33.631Z,47.51
2022-08-22T09:07:58.761Z,47.29
2022-08-22T09:10:27.425Z,47.25
2022-08-22T09:12:56.461Z,47.41
2022-08-22T09:16:02.284Z,47.76
2022-08-22T09:18:35.490Z,47.81
2022-08-22T09:21:16.658Z,47.69
2022-08-22T09:24:08.307Z,47.49
2022-08-22T09:26:16.897Z,47.63
2022-08-22T09:28:29.386Z,47.79
2022-08-22T09:30:54.127Z,48.09
2022-08-22T09:33:03.029Z,47.74
2022-08-22T09:35:12.428Z,47.96
2022-08-22T09:37:21.145Z,47.97
2022-08-22T09:39:31.783Z,47.89
2022-08-22T09:41:41.250Z,48.27
2022-08-22T09:43:48.577Z,47.92
2022-08-22T09:46:02.400Z,47.89
2022-08-22T09:48:14.590Z,48.19
2022-08-22T09:50:25.947Z,48.09
2022-08-22T09:52:51.385Z,48.14
2022-08-22T09:55:03.647Z,48.18
2022-08-22T09:57:22.511Z,48.39
2022-08-22T09:59:39.010Z,47.97
2022-08-22T10:01:50.943Z,48.36
2022-08-22T10:04:29.231Z,48.17
2022-08-22T10:06:43.117Z,48.15
2022-08-22T10:08:52.077Z,48.22
2022-08-22T10:11:19.563Z,48.21
2022-08-22T10:13:34.337Z,47.93
2022-08-22T10:15:43.666Z,47.79
2022-08-22T10:17:59.553Z,47.76
2022-08-22T10:20:11.850Z,47.98
2022-08-22T10:22:32.348Z,47.67
2022-08-22T10:24:47.188Z,47.80
2022-08-22T10:26:55.417Z,47.36
2022-08-22T10:29:08.765Z,47.75
2022-08-22T10:31:45.048Z,47.39
2022-08-22T10:34:06.217Z,47.35
2022-08-22T10:36:17.362Z,47.46
2022-08-22T10:38:27.395Z,47.42
2022-08-22T10:40:36.160Z,47.08
2022-08-22T10:42:50.081Z,46.88
2022-08-22T10:45:36.177Z,46.82
2022-08-22T10:47:45.211Z,46.98
2022-08-22T10:49:54.067Z,46.92
2022-08-22T10:52:13.653Z,46.91
2022-08-22T10:54:32.854Z,46.99
2022-08-22T10:56:43.862Z,46.78
2022-08-22T10:58:56.212Z,46.58
2022-08-22T11:01:37.926Z,46.75
2022-08-22T11:03:38.956Z,46.48
2022-08-22T11:05:44.633Z,46.76
2022-08-22T11:08:16.020Z,46.81
2022-08-22T11:10:28.781Z,46.74
2022-08-22T11:12:41.708Z,46.59
2022-08-22T11:15:03.306Z,46.33
2022-08-22T11:17:32.357Z,46.61
2022-08-22T11:19:59.389Z,46.52
2022-08-22T11:22:16.241Z,46.40
2022-08-22T11:24:56.324Z,46.26
2022-08-22T11:27:07.261Z,46.32
2022-08-22T11:29:36.261Z,46.40
2022-08-22T11:31:51.716Z,46.44
2022-08-22T11:34:04.863Z,46.44
2022-08-22T11:36:27.718Z,46.43
2022-08-22T11:38:39.689Z,46.35
2022-08-22T11:40:46.689Z,46.58
2022-08-22T11:43:00.036Z,46.60
2022-08-22T11:45:08.841Z,46.71
2022-08-22T11:47:17.008Z,46.23
2022-08-22T11:49:32.879Z,46.44
2022-08-22T11:52:03.827Z,46.61
2022-08-22T11:54:13.676Z,46.74
2022-08-22T11:56:24.759Z,46.62
2022-08-22T11:58:42.098Z,46.57
2022-08-22T12:00:53.481Z,46.27
2022-08-22T12:03:23.196Z,46.52
2022-08-22T12:05:33.851Z,46.44
2022-08-22T12:07:40.795Z,46.45
2022-08-22T12:09:54.503Z,46.41
2022-08-22T12:12:08.758Z,46.36
2022-08-22T12:14:20.541Z,46.64
2022-08-22T12:16:48.690Z,46.28
2022-08-22T12:19:02.446Z,46.43
2022-08-22T12:21:23.420Z,46.40
2022-08-22T12:23:59.752Z,46.26
2022-08-22T12:26:16.978Z,46.35
2022-08-22T12:28:31.007Z,46.33
2022-08-22T12:30:43.199Z,46.16
2022-08-22T12:33:23.537Z,46.08
2022-08-22T12:35:39.939Z,46.06
2022-08-22T12:37:53.934Z,46.25
2022-08-22T12:40:17.386Z,46.11
2022-08-22T12:42:36.962Z,45.96
2022-08-22T12:45:01.742Z,45.63
2022-08-22T12:47:19.234Z,45.68
2022-08-22T12:49:38.562Z,45.42
2022-08-22T12:51:58.058Z,45.27
2022-08-22T12:54:30.715Z,45.29
2022-08-22T12:56:47.232Z,45.29
2022-08-22T12:59:24.762Z,45.22
2022-08-22T13:01:34.665Z,45.07
2022-08-22T13:03:44.994Z,44.81
2022-08-22T13:05:56.658Z,44.74
2022-08-22T13:08:06.406Z,44.97
2022-08-22T13:10:35.395Z,44.82
2022-08-22T13:12:46.265Z,44.72
2022-08-22T13:14:55.381Z,44.70
2022-08-22T13:17:01.860Z,44.43
2022-08-22T13:19:30.553Z,44.45
2022-08-22T13:21:36.088Z,44.38
2022-08-22T13:23:45.567Z,44.64
2022-08-22T13:26:02.598Z,44.34
2022-08-22T13:28:13.657Z,44.54
2022-08-22T13:30:20.714Z,44.21
2022-08-22T13:32:31.247Z,44.27
2022-08-22T13:34:43.452Z,44.04
2022-08-22T13:36:52.012Z,44.12
2022-08-22T13:39:04.099Z,44.20
2022-08-22T13:41:10.513Z,44.08
2022-08-22T13:43:19.221Z,43.87
2022-08-22T13:45:25.327Z,43.68
2022-08-22T13:47:31.759Z,43.80
2022-08-22T13:49:37.214Z,43.50
2022-08-22T13:51:51.705Z,43.61
2022-08-22T13:54:27.324Z,43.33
2022-08-22T13:56:44.044Z,43.46
2022-08-22T13:58:54.628Z,43.04
2022-08-22T14:01:33.058Z,42.99
2022-08-22T14:03:41.554Z,42.56
2022-08-22T14:05:53.242Z,42.44
2022-08-22T14:08:13.048Z,41.99
2022-08-22T14:10:24.795Z,41.65
2022-08-22T14:12:50.618Z,41.50
2022-08-22T14:14:59.706Z,41.16
2022-08-22T14:17:04.133Z,40.72
2022-08-22T14:19:11.427Z,39.96
2022-08-22T14:21:28.219Z,39.76
2022-08-22T14:23:37.014Z,39.65
2022-08-22T14:25:44.494Z,39.49
2022-08-22T14:28:01.039Z,39.44
2022-08-22T14:30:14.038Z,39.08
2022-08-22T14:32:36.492Z,39.15
2022-08-22T14:34:45.921Z,39.25
2022-08-22T14:36:56.343Z,39.36
2022-08-22T14:39:07.210Z,39.51
2022-08-22T14:41:15.863Z,39.59
2022-08-22T14:43:47.925Z,39.59
2022-08-22T14:46:02.155Z,39.71
2022-08-22T14:48:30.948Z,39.28
2022-08-22T14:50:43.156Z,39.14
2022-08-22T14:52:48.436Z,38.80
2022-08-22T14:55:08.271Z,38.68
2022-08-22T14:57:19.936Z,38.17
2022-08-22T14:59:36.944Z,38.06
2022-08-22T15:01:56.707Z,38.04
2022-08-22T15:04:03.627Z,38.10
2022-08-22T15:06:11.666Z,37.93
2022-08-22T15:08:24.222Z,37.93
2022-08-22T15:10:34.186Z,37.67
2022-08-22T15:12:41.436Z,37.88
2022-08-22T15:14:52.106Z,37.47
2022-08-22T15:16:58.766Z,37.21
2022-08-22T15:19:03.296Z,37.01
2022-08-22T15:21:11.249Z,36.60
2022-08-22T15:23:20.462Z,36.44
2022-08-22T15:25:28.719Z,36.63
2022-08-22T15:27:34.292Z,36.19
2022-08-22T15:29:50.475Z,35.84
2022-08-22T15:31:56.040Z,35.68
2022-08-22T15:34:09.422Z,35.91
2022-08-22T15:36:16.221Z,35.75
2022-08-22T15:38:29.712Z,35.63
2022-08-22T15:40:40.463Z,35.44
2022-08-22T15:42:46.546Z,35.41
2022-08-22T15:44:55.900Z,34.60
2022-08-22T15:47:03.310Z,34.79
2022-08-22T15:49:11.103Z,34.69
2022-08-22T15:51:32.333Z,34.58
2022-08-22T15:54:16.352Z,34.65
2022-08-22T15:56:30.482Z,34.34
2022-08-22T15:58:37.169Z,34.44
2022-08-22T16:00:45.558Z,34.33
2022-08-22T16:02:58.477Z,34.26
2022-08-22T16:05:23.567Z,33.99
2022-08-22T16:07:36.317Z,33.93
2022-08-22T16:09:44.471Z,33.66
2022-08-22T16:11:55.237Z,33.59
2022-08-22T16:14:21.385Z,33.18
2022-08-22T16:16:55.629Z,33.23
2022-08-22T16:19:21.338Z,33.17
2022-08-22T16:21:59.385Z,32.89
2022-08-22T16:24:31.597Z,32.98
2022-08-22T16:26:41.288Z,32.89
2022-08-22T16:28:58.262Z,32.99
2022-08-22T16:31:18.358Z,32.61
2022-08-22T16:33:36.522Z,32.73
2022-08-22T16:36:22.283Z,32.38
2022-08-22T16:38:27.958Z,32.51
2022-08-22T16:40:31.310Z,32.37
2022-08-22T16:42:37.745Z,32.36
2022-08-22T16:44:47.253Z,32.44
2022-08-22T16:46:53.957Z,32.13
2022-08-22T16:49:02.609Z,32.20
2022-08-22T16:51:12.348Z,32.01
2022-08-22T16:53:47.805Z,31.91
2022-08-22T16:56:18.446Z,31.77
2022-08-22T16:58:57.845Z,31.69
2022-08-22T17:01:12.880Z,31.71
2022-08-22T17:03:26.414Z,31.87
2022-08-22T17:05:44.359Z,31.30
2022-08-22T17:08:02.050Z,31.70
2022-08-22T17:10:23.347Z,31.41
2022-08-22T17:12:43.090Z,31.33
2022-08-22T17:14:57.426Z,31.31
2022-08-22T17:17:18.666Z,31.38
2022-08-22T17:19:38.541Z,31.39
2022-08-22T17:21:51.028Z,31.17
2022-08-22T17:24:05.869Z,30.96
2022-08-22T17:26:20.970Z,31.22
2022-08-22T17:28:34.422Z,30.98
2022-08-22T17:30:46.352Z,31.08
2022-08-22T17:33:09.623Z,31.27
2022-08-22T17:35:27.417Z,31.00
2022-08-22T17:37:46.303Z,31.20
2022-08-22T17:40:05.271Z,31.11
2022-08-22T17:42:25.870Z,31.06
2022-08-22T17:44:40.255Z,31.22
2022-08-22T17:46:50.971Z,31.28
2022-08-22T17:49:00.964Z,31.01
2022-08-22T17:51:17.837Z,31.01
2022-08-22T17:53:32.928Z,31.35
2022-08-22T17:55:41.898Z,31.14
2022-08-22T17:57:50.329Z,31.28
2022-08-22T17:59:57.485Z,31.34
2022-08-22T18:02:09.646Z,31.35
2022-08-22T18:04:23.924Z,31.43
2022-08-22T18:06:31.682Z,31.59
2022-08-22T18:11:11.149Z,31.71
2022-08-22T18:13:21.702Z,31.40
2022-08-22T18:15:30.075Z,31.42
2022-08-22T18:17:39.022Z,31.82
2022-08-22T18:19:54.013Z,31.85
2022-08-22T18:22:03.535Z,31.94
2022-08-22T18:24:20.222Z,31.93
2022-08-22T18:26:29.987Z,32.05
2022-08-22T18:28:41.950Z,32.05
2022-08-22T18:30:56.680Z,32.07
2022-08-22T18:33:05.120Z,32.27
2022-08-22T18:35:15.768Z,32.24
2022-08-22T18:37:26.223Z,32.16
2022-08-22T18:39:42.083Z,32.18
2022-08-22T18:41:50.365Z,32.31
2022-08-22T18:43:53.625Z,32.60
2022-08-22T18:46:25.361Z,32.53
2022-08-22T18:48:31.797Z,32.64
2022-08-22T18:50:37.515Z,32.67
2022-08-22T18:52:41.387Z,32.59
2022-08-22T18:54:59.641Z,32.53
2022-08-22T18:57:24.069Z,32.82
2022-08-22T18:59:59.796Z,32.82
2022-08-22T19:02:20.962Z,32.48
2022-08-22T19:04:39.856Z,32.80
2022-08-22T19:07:00.970Z,32.99
2022-08-22T19:09:28.194Z,32.62
2022-08-22T19:11:47.656Z,32.75
2022-08-22T19:14:10.895Z,32.70
2022-08-22T19:16:39.349Z,32.73
2022-08-22T19:18:45.517Z,32.72
2022-08-22T19:21:31.218Z,32.78
2022-08-22T19:23:50.246Z,32.61
2022-08-22T19:26:27.831Z,32.78
2022-08-22T19:28:37.444Z,32.69
2022-08-22T19:30:44.586Z,32.58
2022-08-22T19:33:03.037Z,32.81
2022-08-22T19:35:21.201Z,32.57
2022-08-22T19:37:32.496Z,32.54
2022-08-22T19:39:55.075Z,32.56
2022-08-22T19:41:58.450Z,32.60
2022-08-22T19:44:02.674Z,32.48
2022-08-22T19:46:09.694Z,32.47
2022-08-22T19:48:14.587Z,32.48
2022-08-22T19:50:27.994Z,32.24
2022-08-22T19:52:59.638Z,32.42
2022-08-22T19:55:14.181Z,32.68
2022-08-22T19:57:30.147Z,32.39
2022-08-22T19:59:51.308Z,32.40
2022-08-22T20:02:03.147Z,32.27
2022-08-22T20:04:11.066Z,32.29
2022-08-22T20:06:43.450Z,32.40
2022-08-22T20:08:57.875Z,32.29
2022-08-22T20:11:19.191Z,32.14
2022-08-22T20:13:24.909Z,32.07
2022-08-22T20:15:31.295Z,32.35
2022-08-22T20:17:43.386Z,32.09
2022-08-22T20:22:18.758Z,32.38
2022-08-22T20:24:29.737Z,31.95
2022-08-22T20:26:32.985Z,32.24
2022-08-22T20:28:46.980Z,31.85
2022-08-22T20:30:57.550Z,32.19
2022-08-22T20:33:08.699Z,32.15
2022-08-22T20:35:16.933Z,31.92
2022-08-22T20:37:40.359Z,31.92
2022-08-22T20:39:59.062Z,32.08
2022-08-22T20:42:05.925Z,32.10
2022-08-22T20:44:15.802Z,32.23
2022-08-22T20:46:38.931Z,31.92
2022-08-22T20:48:49.962Z,31.78
2022-08-22T20:50:53.011Z,32.14
2022-08-22T20:53:12.145Z,32.07
2022-08-22T20:55:18.952Z,31.89
2022-08-22T20:57:23.004Z,32.11
2022-08-22T20:59:30.623Z,31.93
2022-08-22T21:01:35.068Z,32.15
2022-08-22T21:03:42.223Z,31.86
2022-08-22T21:05:46.430Z,31.91
2022-08-22T21:08:02.821Z,32.21
2022-08-22T21:10:26.651Z,32.08
2022-08-22T21:12:29.439Z,32.05
